Time;durP1;ratioP1;P1;durP2;ratioP2;P2;SDS_P1;SDS_P2;PMS_P1;PMS_P2;Temp;Humidity;BMP_temperature;BMP_pressure;BME280_temperature;BME280_humidity;BME280_pressure;Samples;Min_cycle;Max_cycle;Signal;HPM_P1;HPM_P2
2023/08/27 00:01:55;;;;;;;4.00;3.30;;;21.50;99.90;;;;;;5052989;28;20956;-80
2023/08/27 00:04:22;;;;;;;3.50;3.20;;;21.50;99.90;;;;;;5059399;22;20507;-80
2023/08/27 00:06:50;;;;;;;6.47;4.50;;;21.50;99.90;;;;;;5052423;28;20460;-80
2023/08/27 00:09:17;;;;;;;5.67;4.13;;;21.40;99.90;;;;;;5053309;28;20459;-79
2023/08/27 00:11:44;;;;;;;4.70;3.80;;;21.40;99.90;;;;;;5052429;28;21033;-79
2023/08/27 00:14:16;;;;;;;5.30;4.53;;;21.30;99.90;;;;;;5052870;28;20473;-79
2023/08/27 00:16:43;;;;;;;5.17;4.57;;;21.30;99.90;;;;;;5052164;28;20467;-79
2023/08/27 00:19:11;;;;;;;5.10;4.63;;;21.30;99.90;;;;;;5036808;28;20523;-80
2023/08/27 00:21:38;;;;;;;4.90;4.40;;;21.20;99.90;;;;;;5040803;28;20467;-80
2023/08/27 00:24:06;;;;;;;5.00;4.50;;;21.20;99.90;;;;;;5051870;28;20544;-80
2023/08/27 00:26:33;;;;;;;6.03;4.33;;;21.20;99.90;;;;;;5052495;28;20478;-80
2023/08/27 00:29:00;;;;;;;4.27;3.87;;;21.10;99.90;;;;;;5051761;28;20455;-81
2023/08/27 00:31:29;;;;;;;4.20;3.80;;;21.10;99.90;;;;;;5052582;28;20554;-81
2023/08/27 00:33:56;;;;;;;4.93;4.30;;;21.10;99.90;;;;;;5052260;28;20479;-80
2023/08/27 00:36:23;;;;;;;5.13;4.10;;;21.10;99.90;;;;;;5053131;28;20482;-81
2023/08/27 00:38:50;;;;;;;5.10;4.70;;;21.10;99.90;;;;;;5052336;28;20786;-81
2023/08/27 00:41:17;;;;;;;4.23;3.93;;;21.00;99.90;;;;;;5052855;28;20463;-80
2023/08/27 00:43:44;;;;;;;4.10;3.70;;;21.00;99.90;;;;;;5052518;28;20475;-81
2023/08/27 00:46:12;;;;;;;4.60;4.20;;;21.00;99.90;;;;;;5052485;28;20466;-80
2023/08/27 00:48:40;;;;;;;4.40;4.00;;;21.00;99.90;;;;;;5051602;28;21031;-79
2023/08/27 00:51:12;;;;;;;3.67;3.37;;;21.00;99.90;;;;;;5029873;28;21011;-79
2023/08/27 00:53:40;;;;;;;4.40;4.03;;;21.00;99.90;;;;;;5049004;28;20475;-80
2023/08/27 00:56:08;;;;;;;4.47;4.07;;;21.00;99.90;;;;;;5052775;28;20463;-80
2023/08/27 00:58:35;;;;;;;7.03;4.30;;;21.00;99.90;;;;;;5052279;28;20486;-80
2023/08/27 01:01:04;;;;;;;3.90;3.60;;;21.00;99.90;;;;;;5052760;28;20509;-79
2023/08/27 01:03:31;;;;;;;5.03;3.43;;;20.90;99.90;;;;;;5055254;28;20554;-79
2023/08/27 01:06:00;;;;;;;4.60;4.20;;;20.90;99.90;;;;;;5055383;28;20474;-79
2023/08/27 01:08:35;;;;;;;4.80;3.80;;;20.90;99.90;;;;;;5056253;28;20499;-79
2023/08/27 01:11:11;;;;;;;4.47;4.07;;;20.90;99.90;;;;;;5055891;28;20538;-80
2023/08/27 01:13:56;;;;;;;5.47;3.47;;;20.90;99.90;;;;;;5056179;28;20540;-80
2023/08/27 01:16:24;;;;;;;4.50;3.67;;;20.90;99.90;;;;;;5055654;28;20558;-80
2023/08/27 01:18:55;;;;;;;4.33;4.00;;;20.90;99.90;;;;;;5055325;28;20470;-79
2023/08/27 01:21:27;;;;;;;5.07;4.50;;;20.80;99.90;;;;;;5055701;28;20471;-78
2023/08/27 01:23:54;;;;;;;4.73;4.33;;;20.80;99.90;;;;;;5056375;28;20463;-79
2023/08/27 01:26:26;;;;;;;6.43;4.67;;;20.80;99.90;;;;;;5055173;28;20506;-79
2023/08/27 01:29:06;;;;;;;4.83;4.43;;;20.80;99.90;;;;;;5055829;28;20544;-79
2023/08/27 01:31:38;;;;;;;5.70;4.20;;;20.80;99.90;;;;;;5055608;28;20505;-79
2023/08/27 01:34:08;;;;;;;3.90;3.60;;;20.80;99.90;;;;;;5055837;28;20475;-78
2023/08/27 01:36:37;;;;;;;5.93;4.97;;;20.70;99.90;;;;;;5056065;28;20467;-77
2023/08/27 01:39:05;;;;;;;5.03;4.57;;;20.70;99.90;;;;;;5063405;28;20501;-79
2023/08/27 01:41:31;;;;;;;4.70;4.20;;;20.70;99.90;;;;;;5055494;28;20471;-80
2023/08/27 01:43:58;;;;;;;8.07;4.93;;;20.80;99.90;;;;;;5055811;28;20495;-79
2023/08/27 01:46:25;;;;;;;7.40;5.13;;;20.70;99.90;;;;;;5057722;28;20478;-80
2023/08/27 01:48:56;;;;;;;5.83;4.30;;;20.70;99.90;;;;;;5062769;28;20463;-79
2023/08/27 01:51:23;;;;;;;6.83;6.10;;;20.70;99.90;;;;;;5055181;28;20498;-79
2023/08/27 01:53:52;;;;;;;5.33;4.83;;;20.70;99.90;;;;;;5057231;28;20750;-79
2023/08/27 01:56:19;;;;;;;4.87;4.37;;;20.70;99.90;;;;;;5056269;28;20934;-79
2023/08/27 01:58:45;;;;;;;4.73;4.27;;;20.70;99.90;;;;;;5056377;28;20598;-81
2023/08/27 02:01:12;;;;;;;6.00;4.80;;;20.70;99.90;;;;;;5056120;28;20471;-80
2023/08/27 02:03:39;;;;;;;5.57;4.83;;;20.70;99.90;;;;;;5055944;28;20981;-79
2023/08/27 02:06:07;;;;;;;5.30;4.90;;;20.70;99.90;;;;;;5055380;28;20502;-79
2023/08/27 02:08:36;;;;;;;4.50;4.10;;;20.70;99.90;;;;;;5054376;28;20800;-79
2023/08/27 02:11:05;;;;;;;5.90;5.37;;;20.70;99.90;;;;;;5055328;28;20459;-81
2023/08/27 02:13:32;;;;;;;4.63;4.00;;;20.70;99.90;;;;;;5054385;28;20546;-80
2023/08/27 02:16:00;;;;;;;7.10;5.43;;;20.70;99.90;;;;;;5054690;28;20467;-80
2023/08/27 02:18:27;;;;;;;5.07;4.67;;;20.70;99.90;;;;;;5054984;28;20472;-80
2023/08/27 02:20:56;;;;;;;5.20;4.70;;;20.70;99.90;;;;;;5054201;28;20462;-80
2023/08/27 02:23:23;;;;;;;4.63;4.30;;;20.70;99.90;;;;;;5055187;28;20459;-81
2023/08/27 02:25:50;;;;;;;5.70;4.00;;;20.70;99.90;;;;;;5053864;28;20483;-80
2023/08/27 02:28:19;;;;;;;6.70;5.17;;;20.70;99.90;;;;;;5054799;28;20520;-80
2023/08/27 02:30:51;;;;;;;5.57;5.07;;;20.70;99.90;;;;;;5053274;28;20468;-80
2023/08/27 02:33:18;;;;;;;6.63;5.83;;;20.70;99.90;;;;;;5054504;28;20536;-79
2023/08/27 02:35:45;;;;;;;7.60;6.40;;;20.70;99.90;;;;;;5026606;28;20472;-79
2023/08/27 02:38:13;;;;;;;5.87;5.27;;;20.60;99.90;;;;;;5054653;28;20478;-80
2023/08/27 02:40:44;;;;;;;6.40;5.80;;;20.60;99.90;;;;;;5053743;28;20475;-79
2023/08/27 02:43:11;;;;;;;5.30;4.80;;;20.60;99.90;;;;;;5053916;28;20475;-79
2023/08/27 02:45:40;;;;;;;5.30;4.80;;;20.60;99.90;;;;;;5053320;28;20479;-80
2023/08/27 02:48:07;;;;;;;5.23;4.37;;;20.60;99.90;;;;;;5054185;28;20463;-80
2023/08/27 02:50:34;;;;;;;5.60;5.07;;;20.60;99.90;;;;;;5053962;28;20980;-79
2023/08/27 02:53:01;;;;;;;5.47;4.97;;;20.60;99.90;;;;;;5054812;28;20471;-79
2023/08/27 02:55:31;;;;;;;5.13;4.73;;;20.60;99.90;;;;;;5052586;28;20473;-79
2023/08/27 02:57:58;;;;;;;4.47;4.17;;;20.60;99.90;;;;;;5053457;28;20828;-79
2023/08/27 03:00:25;;;;;;;6.30;5.70;;;20.60;99.90;;;;;;5055059;28;20868;-79
2023/08/27 03:02:55;;;;;;;5.10;4.70;;;20.50;99.90;;;;;;5052346;28;20468;-79
2023/08/27 03:05:22;;;;;;;5.70;4.73;;;20.60;99.90;;;;;;5052546;28;20479;-80
2023/08/27 03:07:49;;;;;;;4.40;4.00;;;20.50;99.90;;;;;;5042300;28;20475;-80
2023/08/27 03:10:16;;;;;;;5.33;4.80;;;20.50;99.90;;;;;;5037807;28;20493;-80
2023/08/27 03:12:43;;;;;;;6.23;5.03;;;20.50;99.90;;;;;;5052534;28;20487;-80
2023/08/27 03:15:11;;;;;;;5.77;5.27;;;20.50;99.90;;;;;;5044862;28;20542;-80
2023/08/27 03:17:38;;;;;;;5.33;4.93;;;20.50;99.90;;;;;;5053835;28;20501;-80
2023/08/27 03:20:10;;;;;;;5.53;5.03;;;20.50;99.90;;;;;;5053012;28;20983;-80
2023/08/27 03:22:38;;;;;;;6.83;6.23;;;20.50;99.90;;;;;;5053160;28;21034;-80
2023/08/27 03:25:06;;;;;;;5.70;5.07;;;20.50;99.90;;;;;;5052621;28;20501;-79
2023/08/27 03:27:35;;;;;;;5.50;5.00;;;20.50;99.90;;;;;;5053490;28;21015;-80
2023/08/27 03:30:12;;;;;;;5.27;4.87;;;20.50;99.90;;;;;;5052566;28;20470;-80
2023/08/27 03:35:43;;;;;;;5.73;5.23;;;20.50;99.90;;;;;;5019579;28;20466;-80
2023/08/27 03:38:13;;;;;;;6.37;5.63;;;20.50;99.90;;;;;;5037167;28;20498;-78
2023/08/27 03:41:36;;;;;;;8.57;6.00;;;20.50;99.90;;;;;;5052765;28;20529;-80
2023/08/27 03:44:08;;;;;;;6.93;6.23;;;20.50;99.90;;;;;;4988446;28;20474;-80
2023/08/27 03:49:59;;;;;;;7.30;5.67;;;20.50;99.90;;;;;;5046878;28;20558;-79
2023/08/27 03:58:31;;;;;;;5.33;4.93;;;20.40;99.90;;;;;;5049419;28;20471;-80
2023/08/27 04:01:02;;;;;;;5.90;5.30;;;20.40;99.90;;;;;;5031486;28;20541;-80
2023/08/27 04:03:58;;;;;;;5.47;5.07;;;20.40;99.90;;;;;;5042772;28;20801;-80
2023/08/27 04:06:42;;;;;;;5.30;4.80;;;20.40;99.90;;;;;;5014839;28;20491;-80
2023/08/27 04:09:20;;;;;;;5.70;5.20;;;20.40;99.90;;;;;;5050979;28;20482;-80
2023/08/27 04:11:58;;;;;;;5.10;4.70;;;20.40;99.90;;;;;;5050170;28;20459;-80
2023/08/27 04:14:30;;;;;;;5.67;5.10;;;20.40;99.90;;;;;;5025041;28;20475;-80
2023/08/27 04:17:08;;;;;;;6.67;5.53;;;20.40;99.90;;;;;;5004457;28;20469;-80
2023/08/27 04:22:21;;;;;;;6.27;5.63;;;20.40;99.90;;;;;;5050660;28;20471;-79
2023/08/27 04:24:49;;;;;;;6.13;5.20;;;20.40;99.90;;;;;;5052659;28;20451;-78
2023/08/27 04:27:17;;;;;;;6.70;6.00;;;20.30;99.90;;;;;;5053270;28;20491;-80
2023/08/27 04:29:44;;;;;;;5.80;5.23;;;20.30;99.90;;;;;;5052598;28;20474;-79
2023/08/27 04:32:10;;;;;;;6.07;5.47;;;20.30;99.90;;;;;;5053263;28;20565;-80
2023/08/27 04:34:38;;;;;;;6.47;5.87;;;20.30;99.90;;;;;;5053188;28;20495;-80
2023/08/27 04:37:14;;;;;;;5.97;5.13;;;20.30;99.90;;;;;;5043449;28;20478;-79
2023/08/27 04:39:40;;;;;;;6.17;5.53;;;20.30;99.90;;;;;;5056719;28;20485;-79
2023/08/27 04:42:10;;;;;;;7.33;6.13;;;20.20;99.90;;;;;;5057830;28;20960;-80
2023/08/27 04:44:37;;;;;;;6.03;5.40;;;20.20;99.90;;;;;;5056925;28;20491;-80
2023/08/27 04:47:09;;;;;;;7.00;6.30;;;20.20;99.90;;;;;;5056744;28;20528;-80
2023/08/27 04:49:36;;;;;;;5.83;5.33;;;20.20;99.90;;;;;;5056104;28;20474;-80
2023/08/27 04:52:04;;;;;;;6.87;6.13;;;20.20;99.90;;;;;;5056496;28;20529;-80
2023/08/27 04:54:31;;;;;;;6.63;6.13;;;20.20;99.90;;;;;;5056144;28;20986;-80
2023/08/27 04:56:58;;;;;;;6.20;5.60;;;20.20;99.90;;;;;;5056334;28;20470;-79
2023/08/27 04:59:26;;;;;;;5.87;5.27;;;20.20;99.90;;;;;;5056348;28;20463;-79
2023/08/27 05:01:55;;;;;;;5.87;4.90;;;20.30;99.90;;;;;;5055750;28;20451;-79
2023/08/27 05:04:23;;;;;;;7.17;5.40;;;20.30;99.90;;;;;;5055832;28;20502;-79
2023/08/27 05:06:51;;;;;;;11.93;6.87;;;20.30;99.90;;;;;;5028300;28;20472;-79
2023/08/27 05:09:17;;;;;;;7.10;5.60;;;20.30;99.90;;;;;;5057870;28;20482;-79
2023/08/27 05:11:44;;;;;;;8.77;6.00;;;20.30;99.90;;;;;;5055690;28;20497;-79
2023/08/27 05:14:11;;;;;;;5.93;5.33;;;20.30;99.90;;;;;;5055982;28;20483;-79
2023/08/27 05:16:40;;;;;;;8.40;6.10;;;20.20;99.90;;;;;;5055462;28;20463;-80
2023/08/27 05:19:09;;;;;;;7.03;6.33;;;20.30;99.90;;;;;;5056110;28;20463;-79
2023/08/27 05:21:41;;;;;;;7.50;5.90;;;20.30;99.90;;;;;;5055000;28;20528;-79
2023/08/27 05:24:08;;;;;;;6.93;6.33;;;20.30;99.90;;;;;;5055544;28;20550;-78
2023/08/27 05:26:35;;;;;;;6.07;5.57;;;20.30;99.90;;;;;;5037213;28;20550;-80
2023/08/27 05:29:02;;;;;;;6.70;5.57;;;20.30;99.90;;;;;;5046206;28;20479;-79
2023/08/27 05:31:29;;;;;;;5.53;5.10;;;20.40;99.90;;;;;;5055626;28;20467;-79
2023/08/27 05:33:57;;;;;;;5.10;4.70;;;20.40;99.90;;;;;;5055253;28;20497;-78
2023/08/27 05:36:24;;;;;;;5.33;4.67;;;20.50;99.90;;;;;;5055806;28;20539;-79
2023/08/27 05:38:51;;;;;;;4.40;4.07;;;20.50;99.90;;;;;;5055502;28;20960;-79
2023/08/27 05:41:18;;;;;;;5.70;5.10;;;20.50;99.90;;;;;;5055477;28;21007;-79
2023/08/27 05:43:45;;;;;;;6.03;5.43;;;20.50;99.90;;;;;;5055920;28;20502;-80
2023/08/27 05:46:12;;;;;;;5.77;5.27;;;20.50;99.90;;;;;;5057092;28;20459;-80
2023/08/27 05:48:40;;;;;;;6.37;5.70;;;20.50;99.90;;;;;;5037878;28;20484;-80
2023/08/27 05:51:09;;;;;;;6.13;5.63;;;20.50;99.90;;;;;;5047213;28;20458;-81
2023/08/27 05:53:38;;;;;;;5.90;5.40;;;20.60;99.90;;;;;;5055678;28;20791;-80
2023/08/27 05:56:05;;;;;;;5.97;5.47;;;20.60;99.90;;;;;;5054289;28;20478;-80
2023/08/27 05:58:35;;;;;;;6.33;5.73;;;20.60;99.90;;;;;;5055660;28;20475;-80
2023/08/27 06:01:02;;;;;;;5.90;5.50;;;20.60;99.90;;;;;;5054782;28;20471;-80
2023/08/27 06:03:32;;;;;;;6.30;5.80;;;20.60;99.90;;;;;;5054809;28;20494;-80
2023/08/27 06:05:59;;;;;;;6.30;5.70;;;20.70;99.90;;;;;;5053670;28;20475;-79
2023/08/27 06:08:27;;;;;;;6.33;5.80;;;20.70;99.90;;;;;;5054333;28;20483;-79
2023/08/27 06:10:58;;;;;;;6.43;5.83;;;20.70;99.90;;;;;;5053976;28;20529;-80
2023/08/27 06:13:28;;;;;;;7.43;5.70;;;20.70;99.90;;;;;;5055235;28;20467;-79
2023/08/27 06:15:55;;;;;;;6.07;5.47;;;20.80;99.90;;;;;;5053823;28;20957;-78
2023/08/27 06:18:23;;;;;;;7.70;6.53;;;20.80;99.90;;;;;;5039798;28;20604;-79
2023/08/27 06:20:50;;;;;;;8.03;6.17;;;20.80;99.90;;;;;;5042371;28;20491;-79
2023/08/27 06:23:18;;;;;;;6.17;5.57;;;20.80;99.90;;;;;;5054777;28;20500;-79
2023/08/27 06:25:46;;;;;;;6.03;5.53;;;20.90;99.90;;;;;;5054908;28;20471;-80
2023/08/27 06:28:15;;;;;;;7.10;6.30;;;20.90;99.90;;;;;;5053813;28;20463;-79
2023/08/27 06:30:45;;;;;;;5.40;4.90;;;20.90;99.90;;;;;;5054860;28;20969;-79
2023/08/27 06:33:12;;;;;;;5.13;4.73;;;20.90;99.90;;;;;;5054538;28;20524;-79
2023/08/27 06:35:39;;;;;;;5.37;4.97;;;21.00;99.90;;;;;;5046292;28;20471;-79
2023/08/27 06:38:06;;;;;;;5.40;4.90;;;21.00;99.90;;;;;;5053814;28;20467;-79
2023/08/27 06:40:33;;;;;;;4.87;4.47;;;21.00;99.90;;;;;;5054578;28;20533;-79
2023/08/27 06:43:29;;;;;;;5.33;4.63;;;21.10;99.90;;;;;;5041582;28;20479;-79
2023/08/27 06:45:58;;;;;;;9.33;5.10;;;21.10;99.90;;;;;;5053937;28;20849;-80
2023/08/27 06:48:27;;;;;;;4.40;4.00;;;21.20;99.90;;;;;;5054607;28;20472;-80
2023/08/27 06:50:56;;;;;;;4.30;3.90;;;21.20;99.90;;;;;;5055073;28;20485;-80
2023/08/27 06:53:23;;;;;;;3.70;3.40;;;21.30;99.90;;;;;;5055822;28;20463;-80
2023/08/27 06:55:50;;;;;;;4.00;3.60;;;21.40;99.90;;;;;;5054414;28;20485;-80
2023/08/27 06:58:18;;;;;;;3.73;3.43;;;21.50;99.90;;;;;;5054685;28;20868;-80
2023/08/27 07:00:47;;;;;;;3.90;3.50;;;21.60;99.90;;;;;;5052566;28;20484;-80
2023/08/27 07:03:14;;;;;;;3.93;3.50;;;21.60;99.90;;;;;;5054025;28;20479;-80
2023/08/27 07:05:47;;;;;;;3.30;3.10;;;21.70;99.90;;;;;;5043296;28;20558;-80
2023/08/27 07:08:14;;;;;;;4.17;3.63;;;21.70;99.90;;;;;;5039233;28;20473;-80
2023/08/27 07:10:42;;;;;;;3.50;3.20;;;21.70;99.90;;;;;;5055483;28;20471;-80
2023/08/27 07:13:09;;;;;;;6.17;3.60;;;21.80;99.90;;;;;;5054650;28;20474;-80
2023/08/27 07:15:38;;;;;;;3.40;3.03;;;21.80;99.90;;;;;;5054852;28;20817;-79
2023/08/27 07:18:06;;;;;;;5.40;3.60;;;21.80;99.90;;;;;;5046009;28;20900;-80
2023/08/27 07:20:34;;;;;;;3.70;3.40;;;21.80;99.90;;;;;;5050479;28;20463;-80
2023/08/27 07:23:01;;;;;;;3.77;3.47;;;21.80;99.90;;;;;;5053736;28;20466;-80
2023/08/27 07:25:29;;;;;;;3.17;2.87;;;21.80;99.90;;;;;;5053149;28;20471;-80
2023/08/27 07:27:58;;;;;;;4.00;3.63;;;21.90;99.90;;;;;;5053745;28;20463;-80
2023/08/27 07:30:25;;;;;;;3.00;2.80;;;21.90;99.90;;;;;;5052413;28;20529;-80
2023/08/27 07:32:55;;;;;;;4.90;3.33;;;21.90;99.90;;;;;;5053147;28;20463;-80
2023/08/27 07:35:24;;;;;;;3.00;2.70;;;22.00;99.90;;;;;;5052510;28;20490;-79
2023/08/27 07:37:51;;;;;;;4.40;3.57;;;22.00;99.90;;;;;;5053197;28;20461;-80
2023/08/27 07:40:20;;;;;;;8.10;4.50;;;22.00;99.90;;;;;;5053437;28;20498;-80
2023/08/27 07:42:47;;;;;;;3.97;2.93;;;22.00;99.90;;;;;;5053154;28;20487;-79
2023/08/27 07:45:14;;;;;;;3.77;3.30;;;22.10;99.90;;;;;;5053282;28;20471;-80
2023/08/27 07:47:41;;;;;;;3.33;3.03;;;22.10;99.90;;;;;;5052771;28;20467;-80
2023/08/27 07:50:09;;;;;;;4.70;2.93;;;22.20;99.90;;;;;;5053430;28;20471;-80
2023/08/27 07:52:53;;;;;;;3.40;2.80;;;22.20;99.90;;;;;;5049618;28;20471;-81
2023/08/27 07:55:22;;;;;;;5.23;3.63;;;22.20;99.90;;;;;;5052429;28;20770;-80
2023/08/27 07:58:08;;;;;;;3.60;2.87;;;22.20;99.90;;;;;;5022743;28;20483;-81
2023/08/27 08:00:44;;;;;;;3.77;3.40;;;22.20;99.90;;;;;;5042254;28;20479;-81
2023/08/27 08:03:17;;;;;;;3.90;2.70;;;22.30;99.90;;;;;;5051001;28;20945;-80
2023/08/27 08:05:45;;;;;;;2.57;2.37;;;22.30;99.90;;;;;;5052008;28;20537;-81
2023/08/27 08:08:27;;;;;;;3.07;2.63;;;22.40;99.90;;;;;;5050645;28;20474;-80
2023/08/27 08:11:06;;;;;;;4.40;2.83;;;22.30;99.90;;;;;;5050749;28;20475;-80
2023/08/27 08:13:41;;;;;;;3.13;2.93;;;22.40;99.90;;;;;;5055592;28;20475;-79
2023/08/27 08:16:17;;;;;;;4.40;2.50;;;22.50;99.90;;;;;;5055171;28;20866;-78
2023/08/27 08:19:00;;;;;;;3.20;2.40;;;22.50;99.90;;;;;;5055286;28;20932;-80
2023/08/27 08:21:30;;;;;;;3.13;2.93;;;22.70;99.90;;;;;;5047327;28;20466;-79
2023/08/27 08:24:13;;;;;;;3.50;3.03;;;22.80;99.90;;;;;;5056504;28;20471;-79
2023/08/27 08:26:53;;;;;;;2.37;2.17;;;22.90;99.90;;;;;;5034142;28;20543;-79
2023/08/27 08:29:22;;;;;;;2.87;2.60;;;22.90;99.90;;;;;;5053878;28;20960;-78
2023/08/27 08:31:49;;;;;;;3.90;3.03;;;23.00;99.90;;;;;;5057663;28;20882;-79
2023/08/27 08:34:17;;;;;;;4.53;3.37;;;23.10;99.90;;;;;;5057133;28;20867;-79
2023/08/27 08:36:44;;;;;;;3.33;2.90;;;23.10;99.90;;;;;;5057597;28;20470;-80
2023/08/27 08:39:13;;;;;;;2.60;2.40;;;23.10;99.90;;;;;;5058717;28;20952;-80
2023/08/27 08:41:46;;;;;;;3.13;2.40;;;23.10;99.90;;;;;;5057113;28;20477;-80
2023/08/27 08:44:21;;;;;;;3.53;2.80;;;23.20;99.80;;;;;;5058733;28;20873;-78
2023/08/27 08:46:52;;;;;;;2.80;2.60;;;23.20;99.70;;;;;;5057406;28;20470;-80
2023/08/27 08:49:25;;;;;;;3.07;2.30;;;23.20;99.40;;;;;;5056359;28;20475;-79
2023/08/27 08:51:56;;;;;;;3.03;2.73;;;23.30;99.30;;;;;;5055427;28;20448;-79
2023/08/27 08:54:26;;;;;;;6.07;2.93;;;23.30;99.10;;;;;;5056303;28;20479;-79
2023/08/27 08:57:01;;;;;;;5.90;3.53;;;23.30;99.00;;;;;;5055987;28;20810;-79
2023/08/27 08:59:30;;;;;;;3.77;2.60;;;23.30;98.70;;;;;;5056595;28;20471;-79
2023/08/27 09:01:58;;;;;;;6.93;3.60;;;23.30;98.80;;;;;;5057032;28;20535;-79
2023/08/27 09:04:26;;;;;;;4.07;2.93;;;23.30;98.70;;;;;;5040256;28;20992;-79
2023/08/27 09:06:57;;;;;;;3.47;2.10;;;23.20;98.50;;;;;;5045186;28;20467;-80
2023/08/27 09:09:28;;;;;;;3.80;2.37;;;23.30;98.60;;;;;;5039252;28;20484;-80
2023/08/27 09:11:58;;;;;;;4.53;2.43;;;23.30;98.50;;;;;;5045475;28;20467;-80
2023/08/27 09:14:26;;;;;;;4.67;2.40;;;23.30;98.40;;;;;;5031091;28;20478;-79
2023/08/27 09:16:57;;;;;;;4.43;2.30;;;23.20;98.20;;;;;;5053948;28;20532;-79
2023/08/27 09:19:24;;;;;;;3.03;2.40;;;23.20;98.30;;;;;;5055914;28;20550;-80
2023/08/27 09:21:53;;;;;;;3.93;2.73;;;23.30;98.60;;;;;;5055299;28;20900;-79
2023/08/27 09:24:21;;;;;;;2.40;2.20;;;23.30;98.50;;;;;;5055098;28;20554;-79
2023/08/27 09:26:49;;;;;;;2.83;2.50;;;23.40;99.90;;;;;;5055722;28;20471;-80
2023/08/27 09:29:26;;;;;;;2.80;2.37;;;23.40;99.90;;;;;;5055837;28;21008;-80
2023/08/27 09:31:57;;;;;;;2.90;2.70;;;23.50;99.90;;;;;;5045540;28;20475;-79
2023/08/27 09:34:24;;;;;;;2.87;2.63;;;23.50;99.30;;;;;;5055872;28;20502;-79
2023/08/27 09:36:51;;;;;;;3.37;3.07;;;23.50;99.90;;;;;;5042191;28;20483;-79
2023/08/27 09:39:19;;;;;;;5.27;3.30;;;23.50;99.90;;;;;;5036197;28;20486;-78
2023/08/27 09:41:47;;;;;;;7.30;3.30;;;23.50;99.90;;;;;;5053050;28;21061;-78
2023/08/27 09:44:16;;;;;;;3.57;2.63;;;23.50;99.90;;;;;;5055905;28;20965;-79
2023/08/27 09:46:43;;;;;;;3.40;2.63;;;23.50;99.90;;;;;;5055893;28;20506;-78
2023/08/27 09:49:10;;;;;;;3.03;2.60;;;23.60;99.90;;;;;;5046794;28;20856;-80
2023/08/27 09:51:38;;;;;;;3.00;2.80;;;23.60;98.80;;;;;;5035409;28;20514;-79
2023/08/27 09:54:16;;;;;;;2.90;2.70;;;23.60;99.10;;;;;;5036383;28;20468;-80
2023/08/27 09:56:49;;;;;;;3.20;2.77;;;23.60;99.90;;;;;;5036364;28;20479;-79
2023/08/27 09:59:18;;;;;;;2.77;2.57;;;23.70;99.90;;;;;;5035627;28;20561;-78
2023/08/27 10:01:48;;;;;;;6.07;2.90;;;23.80;99.90;;;;;;5040907;28;20471;-79
2023/08/27 10:04:15;;;;;;;3.17;2.93;;;23.80;99.90;;;;;;5035281;28;20523;-78
2023/08/27 10:06:52;;;;;;;3.10;2.80;;;23.90;99.90;;;;;;5047689;28;20502;-80
2023/08/27 10:09:20;;;;;;;4.63;2.80;;;23.90;99.70;;;;;;5052582;28;20525;-81
2023/08/27 10:11:47;;;;;;;3.70;2.80;;;23.90;99.40;;;;;;5055554;28;20547;-79
2023/08/27 10:14:17;;;;;;;2.97;2.67;;;23.90;99.70;;;;;;5043850;28;20964;-80
2023/08/27 10:16:44;;;;;;;2.83;2.63;;;23.90;99.90;;;;;;5055332;28;20562;-79
2023/08/27 10:19:11;;;;;;;4.33;2.30;;;23.90;99.90;;;;;;5055516;28;20463;-79
2023/08/27 10:21:39;;;;;;;3.03;2.53;;;24.00;99.90;;;;;;5055961;28;20466;-79
2023/08/27 10:24:10;;;;;;;4.73;2.50;;;24.10;99.90;;;;;;5054787;28;20513;-79
2023/08/27 10:26:38;;;;;;;2.77;2.57;;;24.10;99.60;;;;;;5056239;28;20463;-79
2023/08/27 10:29:05;;;;;;;2.70;2.50;;;24.20;99.90;;;;;;5056526;28;20806;-79
2023/08/27 10:31:33;;;;;;;2.93;2.73;;;24.20;99.90;;;;;;5055585;28;20474;-79
2023/08/27 10:34:00;;;;;;;3.20;2.90;;;24.30;99.90;;;;;;5055092;28;20506;-80
2023/08/27 10:36:34;;;;;;;3.50;2.30;;;24.30;99.90;;;;;;5055287;28;20490;-80
2023/08/27 10:39:04;;;;;;;3.20;2.87;;;24.40;99.90;;;;;;5063452;28;20467;-80
2023/08/27 10:41:35;;;;;;;2.97;2.67;;;24.50;99.90;;;;;;5038326;28;20467;-79
2023/08/27 10:44:03;;;;;;;3.53;2.67;;;24.50;99.90;;;;;;5026546;28;20487;-79
2023/08/27 10:46:31;;;;;;;2.77;2.57;;;24.50;98.70;;;;;;5037731;28;20872;-79
2023/08/27 10:48:59;;;;;;;3.23;2.93;;;24.50;99.50;;;;;;5036947;28;20562;-79
2023/08/27 10:51:32;;;;;;;2.97;2.57;;;24.50;99.80;;;;;;5036263;28;20476;-80
2023/08/27 10:54:00;;;;;;;3.53;2.83;;;24.50;99.90;;;;;;5039076;28;20556;-79
2023/08/27 10:56:37;;;;;;;2.47;2.27;;;24.50;99.90;;;;;;5042305;28;20468;-80
2023/08/27 10:59:05;;;;;;;2.07;1.80;;;24.50;99.90;;;;;;5039082;28;20528;-78
2023/08/27 11:01:37;;;;;;;4.30;2.27;;;24.50;98.40;;;;;;5026486;28;20473;-78
2023/08/27 11:04:11;;;;;;;3.00;2.80;;;24.50;99.00;;;;;;5035876;28;20476;-79
2023/08/27 11:06:40;;;;;;;2.50;2.27;;;24.50;97.10;;;;;;5038111;28;20460;-80
2023/08/27 11:09:20;;;;;;;3.83;2.20;;;24.50;96.20;;;;;;5039071;28;20540;-78
2023/08/27 11:11:50;;;;;;;3.13;2.20;;;24.40;96.60;;;;;;5038472;28;20456;-79
2023/08/27 11:14:17;;;;;;;2.93;2.30;;;24.40;98.60;;;;;;5036833;28;20476;-79
2023/08/27 11:17:03;;;;;;;3.20;2.33;;;24.40;98.30;;;;;;5027361;28;20468;-79
2023/08/27 11:19:37;;;;;;;3.50;2.27;;;24.40;98.70;;;;;;5037041;28;20472;-79
2023/08/27 11:22:07;;;;;;;2.33;2.13;;;24.40;98.90;;;;;;5027044;28;20463;-80
2023/08/27 11:24:34;;;;;;;3.13;2.40;;;24.40;97.80;;;;;;5024722;28;20475;-78
2023/08/27 11:27:05;;;;;;;2.70;2.20;;;24.40;99.00;;;;;;5035923;28;20498;-78
2023/08/27 11:29:34;;;;;;;2.57;2.37;;;24.40;97.10;;;;;;5033915;28;20815;-79
2023/08/27 11:32:14;;;;;;;6.37;2.07;;;24.40;97.40;;;;;;5034841;28;20476;-78
2023/08/27 11:34:44;;;;;;;3.00;2.30;;;24.40;97.00;;;;;;5021964;28;20542;-79
2023/08/27 11:37:12;;;;;;;2.70;2.43;;;24.30;98.00;;;;;;5033415;28;20550;-79
2023/08/27 11:39:45;;;;;;;3.10;2.57;;;24.30;97.50;;;;;;5037121;28;20495;-79
2023/08/27 11:42:14;;;;;;;2.73;2.53;;;24.30;97.60;;;;;;5054186;28;20470;-79
2023/08/27 11:44:55;;;;;;;2.83;2.50;;;24.30;97.90;;;;;;5055098;28;20487;-79
2023/08/27 11:47:23;;;;;;;2.30;2.20;;;24.30;97.50;;;;;;5052585;28;20478;-79
2023/08/27 11:49:56;;;;;;;2.57;2.37;;;24.30;97.80;;;;;;5045051;28;20474;-80
2023/08/27 11:52:24;;;;;;;2.80;2.53;;;24.30;97.80;;;;;;5053840;28;20984;-80
2023/08/27 11:54:52;;;;;;;2.70;2.50;;;24.20;97.60;;;;;;5045126;28;20811;-79
2023/08/27 11:57:20;;;;;;;3.20;2.77;;;24.20;97.50;;;;;;5053433;28;20474;-81
2023/08/27 11:59:48;;;;;;;3.50;2.37;;;24.20;98.00;;;;;;5053261;28;20548;-80
2023/08/27 12:02:16;;;;;;;2.97;2.40;;;24.10;98.70;;;;;;5053961;28;20469;-79
2023/08/27 12:04:44;;;;;;;3.27;2.90;;;24.10;98.40;;;;;;5045189;28;20475;-79
2023/08/27 12:07:13;;;;;;;2.40;2.20;;;24.10;97.40;;;;;;5050880;28;20535;-80
2023/08/27 12:09:41;;;;;;;3.40;2.40;;;24.10;98.10;;;;;;5052731;28;20471;-80
2023/08/27 12:12:09;;;;;;;3.03;2.83;;;24.10;98.50;;;;;;5052500;28;20930;-78
2023/08/27 12:14:39;;;;;;;2.87;2.50;;;24.10;97.90;;;;;;5053005;28;20821;-81
2023/08/27 12:17:08;;;;;;;3.70;2.77;;;24.00;97.80;;;;;;5051619;28;20463;-80
2023/08/27 12:19:36;;;;;;;3.23;2.93;;;24.10;97.80;;;;;;5053324;28;20467;-79
2023/08/27 12:22:06;;;;;;;2.77;2.57;;;24.10;98.60;;;;;;5052685;28;20467;-79
2023/08/27 12:24:35;;;;;;;2.50;2.00;;;24.20;97.50;;;;;;5040331;28;20471;-79
2023/08/27 12:27:04;;;;;;;3.00;2.80;;;24.20;97.40;;;;;;5034554;28;20537;-79
2023/08/27 12:29:35;;;;;;;2.63;2.43;;;24.20;98.00;;;;;;5053270;28;20775;-80
2023/08/27 12:32:09;;;;;;;2.93;2.33;;;24.20;98.60;;;;;;5052710;28;20479;-80
2023/08/27 12:34:40;;;;;;;2.87;2.50;;;24.10;99.50;;;;;;5052873;28;20466;-80
2023/08/27 12:37:08;;;;;;;10.40;9.43;;;24.20;99.30;;;;;;5050993;28;20477;-80
2023/08/27 12:39:55;;;;;;;16.10;14.40;;;24.20;99.10;;;;;;5042296;28;20527;-80
2023/08/27 12:42:25;;;;;;;23.97;21.57;;;24.20;98.90;;;;;;5051880;28;20451;-80
2023/08/27 12:44:53;;;;;;;23.97;21.47;;;24.20;98.80;;;;;;5052753;28;20964;-79
2023/08/27 12:47:20;;;;;;;12.53;11.50;;;24.20;98.80;;;;;;5047657;28;20541;-80
2023/08/27 12:49:47;;;;;;;7.57;6.87;;;24.30;98.20;;;;;;5024673;28;20460;-79
2023/08/27 12:52:14;;;;;;;5.37;4.87;;;24.30;97.50;;;;;;5031752;28;20491;-79
2023/08/27 12:54:42;;;;;;;6.23;5.63;;;24.30;97.10;;;;;;5033358;28;20494;-79
2023/08/27 12:57:11;;;;;;;14.03;12.80;;;24.20;97.00;;;;;;5036286;28;20467;-79
2023/08/27 12:59:38;;;;;;;6.67;5.90;;;24.20;97.70;;;;;;5056256;28;20466;-79
2023/08/27 13:02:06;;;;;;;7.97;6.43;;;24.20;97.30;;;;;;5056801;28;20466;-80
2023/08/27 13:04:34;;;;;;;7.03;6.43;;;24.20;97.10;;;;;;5056208;28;21041;-79
2023/08/27 13:07:03;;;;;;;4.83;4.30;;;24.20;97.20;;;;;;5057544;28;20470;-79
2023/08/27 13:09:30;;;;;;;7.67;7.07;;;24.20;96.40;;;;;;5055394;28;20951;-79
2023/08/27 13:12:02;;;;;;;5.43;4.93;;;24.10;96.80;;;;;;5056228;28;20475;-80
2023/08/27 13:14:35;;;;;;;2.67;2.17;;;24.10;97.00;;;;;;5056140;28;20962;-80